sensor_id;sensor_type;location;lat;lon;timestamp;temperature;humidity
17994;DHT22;9122;48.406;9.984;2022-12-07T00:01:18;4.80;97.90
17994;DHT22;9122;48.406;9.984;2022-12-07T00:04:03;4.70;97.80
17994;DHT22;9122;48.406;9.984;2022-12-07T00:06:51;4.70;97.80
17994;DHT22;9122;48.406;9.984;2022-12-07T00:09:36;4.70;97.80
17994;DHT22;9122;48.406;9.984;2022-12-07T00:12:21;4.70;97.70
17994;DHT22;9122;48.406;9.984;2022-12-07T00:15:06;4.70;97.70
17994;DHT22;9122;48.406;9.984;2022-12-07T00:17:50;4.70;97.70
17994;DHT22;9122;48.406;9.984;2022-12-07T00:20:35;4.70;97.70
17994;DHT22;9122;48.406;9.984;2022-12-07T00:23:19;4.70;97.90
17994;DHT22;9122;48.406;9.984;2022-12-07T00:26:10;4.70;97.50
17994;DHT22;9122;48.406;9.984;2022-12-07T00:28:57;4.80;97.50
17994;DHT22;9122;48.406;9.984;2022-12-07T00:31:42;4.70;97.30
17994;DHT22;9122;48.406;9.984;2022-12-07T00:34:26;4.70;97.30
17994;DHT22;9122;48.406;9.984;2022-12-07T00:37:11;4.70;97.30
17994;DHT22;9122;48.406;9.984;2022-12-07T00:39:56;4.80;97.20
17994;DHT22;9122;48.406;9.984;2022-12-07T00:42:41;4.70;97.10
17994;DHT22;9122;48.406;9.984;2022-12-07T00:45:25;4.70;97.10
17994;DHT22;9122;48.406;9.984;2022-12-07T00:48:10;4.70;97.00
17994;DHT22;9122;48.406;9.984;2022-12-07T00:50:55;5.00;97.10
17994;DHT22;9122;48.406;9.984;2022-12-07T00:53:40;4.70;96.90
17994;DHT22;9122;48.406;9.984;2022-12-07T00:56:26;4.80;96.90
17994;DHT22;9122;48.406;9.984;2022-12-07T00:59:12;6.00;97.20
17994;DHT22;9122;48.406;9.984;2022-12-07T01:02:00;4.70;96.90
17994;DHT22;9122;48.406;9.984;2022-12-07T01:04:46;4.70;96.90
17994;DHT22;9122;48.406;9.984;2022-12-07T01:07:30;4.70;96.90
17994;DHT22;9122;48.406;9.984;2022-12-07T01:10:14;4.70;96.90
17994;DHT22;9122;48.406;9.984;2022-12-07T01:12:59;4.70;96.80
17994;DHT22;9122;48.406;9.984;2022-12-07T01:15:44;4.70;96.90
17994;DHT22;9122;48.406;9.984;2022-12-07T01:18:31;4.70;96.90
17994;DHT22;9122;48.406;9.984;2022-12-07T01:24:04;4.70;96.90
17994;DHT22;9122;48.406;9.984;2022-12-07T01:26:49;4.70;96.90
17994;DHT22;9122;48.406;9.984;2022-12-07T01:29:34;4.70;96.90
17994;DHT22;9122;48.406;9.984;2022-12-07T01:32:18;4.70;96.80
17994;DHT22;9122;48.406;9.984;2022-12-07T01:35:03;4.70;96.90
17994;DHT22;9122;48.406;9.984;2022-12-07T01:37:47;4.70;97.00
17994;DHT22;9122;48.406;9.984;2022-12-07T01:40:32;5.10;97.10
17994;DHT22;9122;48.406;9.984;2022-12-07T01:43:18;4.70;97.00
17994;DHT22;9122;48.406;9.984;2022-12-07T01:46:03;4.80;97.00
17994;DHT22;9122;48.406;9.984;2022-12-07T01:48:48;4.80;97.00
17994;DHT22;9122;48.406;9.984;2022-12-07T01:51:32;4.70;97.10
17994;DHT22;9122;48.406;9.984;2022-12-07T01:54:18;4.70;97.10
17994;DHT22;9122;48.406;9.984;2022-12-07T01:57:06;4.70;97.10
17994;DHT22;9122;48.406;9.984;2022-12-07T01:59:53;4.70;97.10
17994;DHT22;9122;48.406;9.984;2022-12-07T02:02:42;4.80;97.10
17994;DHT22;9122;48.406;9.984;2022-12-07T02:05:28;5.40;97.30
17994;DHT22;9122;48.406;9.984;2022-12-07T02:08:13;4.80;97.20
17994;DHT22;9122;48.406;9.984;2022-12-07T02:10:59;4.80;97.20
17994;DHT22;9122;48.406;9.984;2022-12-07T02:13:44;4.70;97.20
17994;DHT22;9122;48.406;9.984;2022-12-07T02:22:52;4.70;97.30
17994;DHT22;9122;48.406;9.984;2022-12-07T02:28:48;4.70;97.30
17994;DHT22;9122;48.406;9.984;2022-12-07T02:31:34;4.70;97.30
17994;DHT22;9122;48.406;9.984;2022-12-07T02:43:14;4.80;97.50
17994;DHT22;9122;48.406;9.984;2022-12-07T02:46:10;4.70;97.50
17994;DHT22;9122;48.406;9.984;2022-12-07T02:48:59;4.80;97.60
17994;DHT22;9122;48.406;9.984;2022-12-07T02:51:46;4.80;97.60
17994;DHT22;9122;48.406;9.984;2022-12-07T02:54:30;4.70;97.50
17994;DHT22;9122;48.406;9.984;2022-12-07T03:00:55;4.70;97.60
17994;DHT22;9122;48.406;9.984;2022-12-07T03:03:48;4.70;97.70
17994;DHT22;9122;48.406;9.984;2022-12-07T03:06:39;4.80;97.70
17994;DHT22;9122;48.406;9.984;2022-12-07T03:09:43;4.70;97.70
17994;DHT22;9122;48.406;9.984;2022-12-07T03:12:42;4.70;97.80
17994;DHT22;9122;48.406;9.984;2022-12-07T03:18:36;4.70;97.80
17994;DHT22;9122;48.406;9.984;2022-12-07T03:21:28;4.70;97.80
17994;DHT22;9122;48.406;9.984;2022-12-07T03:24:19;5.00;97.90
17994;DHT22;9122;48.406;9.984;2022-12-07T03:30:09;4.70;98.20
17994;DHT22;9122;48.406;9.984;2022-12-07T03:33:03;4.70;97.80
17994;DHT22;9122;48.406;9.984;2022-12-07T03:42:11;4.70;97.70
17994;DHT22;9122;48.406;9.984;2022-12-07T03:44:56;4.80;97.80
17994;DHT22;9122;48.406;9.984;2022-12-07T03:47:54;5.10;97.90
17994;DHT22;9122;48.406;9.984;2022-12-07T03:50:52;4.70;97.90
17994;DHT22;9122;48.406;9.984;2022-12-07T03:54:13;4.70;97.90
17994;DHT22;9122;48.406;9.984;2022-12-07T03:56:59;4.70;97.90
17994;DHT22;9122;48.406;9.984;2022-12-07T03:59:45;4.80;97.90
17994;DHT22;9122;48.406;9.984;2022-12-07T04:02:30;4.70;97.80
17994;DHT22;9122;48.406;9.984;2022-12-07T04:05:16;4.80;97.80
17994;DHT22;9122;48.406;9.984;2022-12-07T04:08:01;4.70;97.90
17994;DHT22;9122;48.406;9.984;2022-12-07T04:10:45;4.80;97.90
17994;DHT22;9122;48.406;9.984;2022-12-07T04:13:30;4.70;97.60
17994;DHT22;9122;48.406;9.984;2022-12-07T04:16:34;4.80;97.60
17994;DHT22;9122;48.406;9.984;2022-12-07T04:19:20;5.40;97.70
17994;DHT22;9122;48.406;9.984;2022-12-07T04:22:06;4.70;97.30
17994;DHT22;9122;48.406;9.984;2022-12-07T04:24:50;4.70;97.30
17994;DHT22;9122;48.406;9.984;2022-12-07T04:27:34;4.70;97.20
17994;DHT22;9122;48.406;9.984;2022-12-07T04:30:18;4.70;97.20
17994;DHT22;9122;48.406;9.984;2022-12-07T04:33:03;4.70;97.20
17994;DHT22;9122;48.406;9.984;2022-12-07T04:35:47;4.80;97.10
17994;DHT22;9122;48.406;9.984;2022-12-07T04:38:32;5.00;97.10
17994;DHT22;9122;48.406;9.984;2022-12-07T04:41:16;4.70;96.90
17994;DHT22;9122;48.406;9.984;2022-12-07T04:44:03;4.70;96.80
17994;DHT22;9122;48.406;9.984;2022-12-07T04:46:48;4.70;96.50
17994;DHT22;9122;48.406;9.984;2022-12-07T04:49:33;4.70;96.30
17994;DHT22;9122;48.406;9.984;2022-12-07T04:52:18;4.70;96.40
17994;DHT22;9122;48.406;9.984;2022-12-07T04:55:02;4.60;96.30
17994;DHT22;9122;48.406;9.984;2022-12-07T04:57:46;4.70;96.30
17994;DHT22;9122;48.406;9.984;2022-12-07T05:00:31;4.70;96.30
17994;DHT22;9122;48.406;9.984;2022-12-07T05:03:16;4.70;96.40
17994;DHT22;9122;48.406;9.984;2022-12-07T05:06:00;4.70;96.40
17994;DHT22;9122;48.406;9.984;2022-12-07T05:08:44;4.60;96.30
17994;DHT22;9122;48.406;9.984;2022-12-07T05:11:29;4.70;96.40
17994;DHT22;9122;48.406;9.984;2022-12-07T05:14:23;4.70;96.40
17994;DHT22;9122;48.406;9.984;2022-12-07T05:17:08;4.60;96.30
17994;DHT22;9122;48.406;9.984;2022-12-07T05:19:52;4.60;96.30
17994;DHT22;9122;48.406;9.984;2022-12-07T05:22:37;4.60;96.30
17994;DHT22;9122;48.406;9.984;2022-12-07T05:25:21;4.60;96.40
17994;DHT22;9122;48.406;9.984;2022-12-07T05:28:06;4.60;96.30
17994;DHT22;9122;48.406;9.984;2022-12-07T05:33:35;4.60;95.90
17994;DHT22;9122;48.406;9.984;2022-12-07T05:36:20;4.60;96.10
17994;DHT22;9122;48.406;9.984;2022-12-07T05:39:05;4.60;96.00
17994;DHT22;9122;48.406;9.984;2022-12-07T05:41:49;4.60;96.00
17994;DHT22;9122;48.406;9.984;2022-12-07T05:44:52;4.60;96.00
17994;DHT22;9122;48.406;9.984;2022-12-07T05:47:37;4.60;96.00
17994;DHT22;9122;48.406;9.984;2022-12-07T05:50:21;4.60;95.80
17994;DHT22;9122;48.406;9.984;2022-12-07T05:53:06;5.10;95.70
17994;DHT22;9122;48.406;9.984;2022-12-07T05:55:52;5.90;95.60
17994;DHT22;9122;48.406;9.984;2022-12-07T05:58:36;4.50;95.00
17994;DHT22;9122;48.406;9.984;2022-12-07T06:01:43;5.10;95.10
17994;DHT22;9122;48.406;9.984;2022-12-07T06:04:33;4.50;95.30
17994;DHT22;9122;48.406;9.984;2022-12-07T06:07:19;4.50;94.90
17994;DHT22;9122;48.406;9.984;2022-12-07T06:10:04;4.50;94.80
17994;DHT22;9122;48.406;9.984;2022-12-07T06:12:48;4.50;94.70
17994;DHT22;9122;48.406;9.984;2022-12-07T06:15:35;4.50;94.80
17994;DHT22;9122;48.406;9.984;2022-12-07T06:18:19;4.50;94.80
17994;DHT22;9122;48.406;9.984;2022-12-07T06:21:04;4.50;94.80
17994;DHT22;9122;48.406;9.984;2022-12-07T06:23:48;4.50;94.70
17994;DHT22;9122;48.406;9.984;2022-12-07T06:26:32;4.40;94.70
17994;DHT22;9122;48.406;9.984;2022-12-07T06:29:18;4.40;94.80
17994;DHT22;9122;48.406;9.984;2022-12-07T06:32:03;4.50;95.00
17994;DHT22;9122;48.406;9.984;2022-12-07T06:34:47;4.50;95.00
17994;DHT22;9122;48.406;9.984;2022-12-07T06:37:32;4.50;95.10
17994;DHT22;9122;48.406;9.984;2022-12-07T06:40:16;4.40;95.00
17994;DHT22;9122;48.406;9.984;2022-12-07T06:43:01;4.40;95.00
17994;DHT22;9122;48.406;9.984;2022-12-07T06:45:45;4.80;95.20
17994;DHT22;9122;48.406;9.984;2022-12-07T06:48:30;4.40;95.10
17994;DHT22;9122;48.406;9.984;2022-12-07T06:51:14;4.40;95.10
17994;DHT22;9122;48.406;9.984;2022-12-07T06:53:58;4.40;95.10
17994;DHT22;9122;48.406;9.984;2022-12-07T06:56:43;5.00;95.40
17994;DHT22;9122;48.406;9.984;2022-12-07T06:59:28;4.40;95.20
17994;DHT22;9122;48.406;9.984;2022-12-07T07:02:12;4.40;95.30
17994;DHT22;9122;48.406;9.984;2022-12-07T07:04:57;4.40;95.20
17994;DHT22;9122;48.406;9.984;2022-12-07T07:07:41;4.40;95.20
17994;DHT22;9122;48.406;9.984;2022-12-07T07:10:26;4.40;95.20
17994;DHT22;9122;48.406;9.984;2022-12-07T07:13:10;4.40;95.10
17994;DHT22;9122;48.406;9.984;2022-12-07T07:15:55;4.40;95.00
17994;DHT22;9122;48.406;9.984;2022-12-07T07:18:39;4.40;94.80
17994;DHT22;9122;48.406;9.984;2022-12-07T07:21:24;4.40;94.80
17994;DHT22;9122;48.406;9.984;2022-12-07T07:24:09;4.40;94.70
17994;DHT22;9122;48.406;9.984;2022-12-07T07:26:54;4.40;94.70
17994;DHT22;9122;48.406;9.984;2022-12-07T07:29:51;4.40;94.60
17994;DHT22;9122;48.406;9.984;2022-12-07T07:32:37;4.40;94.50
17994;DHT22;9122;48.406;9.984;2022-12-07T07:35:22;4.40;94.70
17994;DHT22;9122;48.406;9.984;2022-12-07T07:38:07;4.40;94.40
17994;DHT22;9122;48.406;9.984;2022-12-07T07:40:52;4.90;94.30
17994;DHT22;9122;48.406;9.984;2022-12-07T07:43:37;4.40;93.90
17994;DHT22;9122;48.406;9.984;2022-12-07T07:46:21;4.50;93.60
17994;DHT22;9122;48.406;9.984;2022-12-07T07:49:11;4.50;93.30
17994;DHT22;9122;48.406;9.984;2022-12-07T07:51:56;4.50;93.30
17994;DHT22;9122;48.406;9.984;2022-12-07T07:54:40;4.60;93.40
17994;DHT22;9122;48.406;9.984;2022-12-07T07:57:25;4.70;93.60
17994;DHT22;9122;48.406;9.984;2022-12-07T08:00:16;4.80;93.60
17994;DHT22;9122;48.406;9.984;2022-12-07T08:03:02;4.90;93.60
17994;DHT22;9122;48.406;9.984;2022-12-07T08:05:46;5.00;93.30
17994;DHT22;9122;48.406;9.984;2022-12-07T08:08:32;5.50;93.30
17994;DHT22;9122;48.406;9.984;2022-12-07T08:11:16;5.20;93.20
17994;DHT22;9122;48.406;9.984;2022-12-07T08:14:03;5.40;93.50
17994;DHT22;9122;48.406;9.984;2022-12-07T08:16:48;5.40;93.60
17994;DHT22;9122;48.406;9.984;2022-12-07T08:19:32;5.50;93.60
17994;DHT22;9122;48.406;9.984;2022-12-07T08:22:20;5.60;93.70
17994;DHT22;9122;48.406;9.984;2022-12-07T08:25:08;5.70;93.80
17994;DHT22;9122;48.406;9.984;2022-12-07T08:27:55;5.80;93.50
17994;DHT22;9122;48.406;9.984;2022-12-07T08:30:39;5.90;92.80
17994;DHT22;9122;48.406;9.984;2022-12-07T08:33:24;6.00;92.00
17994;DHT22;9122;48.406;9.984;2022-12-07T08:36:10;6.00;91.50
17994;DHT22;9122;48.406;9.984;2022-12-07T08:38:54;6.10;91.50
17994;DHT22;9122;48.406;9.984;2022-12-07T08:41:39;6.00;91.00
17994;DHT22;9122;48.406;9.984;2022-12-07T08:44:24;6.00;90.90
17994;DHT22;9122;48.406;9.984;2022-12-07T08:47:10;6.00;90.90
17994;DHT22;9122;48.406;9.984;2022-12-07T08:49:54;6.00;90.90
17994;DHT22;9122;48.406;9.984;2022-12-07T08:52:40;6.00;90.80
17994;DHT22;9122;48.406;9.984;2022-12-07T08:55:26;5.90;90.60
17994;DHT22;9122;48.406;9.984;2022-12-07T08:58:11;5.90;90.60
17994;DHT22;9122;48.406;9.984;2022-12-07T09:00:56;5.90;90.60
17994;DHT22;9122;48.406;9.984;2022-12-07T09:03:40;5.90;90.50
17994;DHT22;9122;48.406;9.984;2022-12-07T09:06:28;5.90;90.50
17994;DHT22;9122;48.406;9.984;2022-12-07T09:09:13;5.90;90.50
17994;DHT22;9122;48.406;9.984;2022-12-07T09:11:58;5.90;90.00
17994;DHT22;9122;48.406;9.984;2022-12-07T09:14:43;5.80;89.90
17994;DHT22;9122;48.406;9.984;2022-12-07T09:17:32;5.80;89.70
17994;DHT22;9122;48.406;9.984;2022-12-07T09:20:17;5.80;89.50
17994;DHT22;9122;48.406;9.984;2022-12-07T09:23:01;5.80;89.60
17994;DHT22;9122;48.406;9.984;2022-12-07T09:25:46;5.80;89.70
17994;DHT22;9122;48.406;9.984;2022-12-07T09:28:31;5.80;89.50
17994;DHT22;9122;48.406;9.984;2022-12-07T09:31:18;6.10;89.90
17994;DHT22;9122;48.406;9.984;2022-12-07T09:34:02;5.80;89.70
17994;DHT22;9122;48.406;9.984;2022-12-07T09:36:46;5.80;90.00
17994;DHT22;9122;48.406;9.984;2022-12-07T09:39:31;5.80;89.50
17994;DHT22;9122;48.406;9.984;2022-12-07T09:42:36;5.90;89.80
17994;DHT22;9122;48.406;9.984;2022-12-07T09:45:22;5.80;89.80
17994;DHT22;9122;48.406;9.984;2022-12-07T09:48:20;5.90;89.70
17994;DHT22;9122;48.406;9.984;2022-12-07T09:54:02;5.60;89.70
17994;DHT22;9122;48.406;9.984;2022-12-07T09:56:47;5.90;89.80
17994;DHT22;9122;48.406;9.984;2022-12-07T09:59:31;6.00;89.60
17994;DHT22;9122;48.406;9.984;2022-12-07T10:08:34;6.10;88.40
17994;DHT22;9122;48.406;9.984;2022-12-07T10:11:18;6.10;88.00
17994;DHT22;9122;48.406;9.984;2022-12-07T10:14:13;6.20;87.60
17994;DHT22;9122;48.406;9.984;2022-12-07T10:16:58;6.20;87.30
17994;DHT22;9122;48.406;9.984;2022-12-07T10:19:42;6.30;87.10
17994;DHT22;9122;48.406;9.984;2022-12-07T10:22:26;6.40;86.60
17994;DHT22;9122;48.406;9.984;2022-12-07T10:25:19;6.40;86.20
17994;DHT22;9122;48.406;9.984;2022-12-07T10:31:01;6.50;85.60
17994;DHT22;9122;48.406;9.984;2022-12-07T10:33:56;6.50;85.50
17994;DHT22;9122;48.406;9.984;2022-12-07T10:36:40;6.50;85.70
17994;DHT22;9122;48.406;9.984;2022-12-07T10:39:25;6.50;85.60
17994;DHT22;9122;48.406;9.984;2022-12-07T10:42:30;6.50;85.50
17994;DHT22;9122;48.406;9.984;2022-12-07T10:45:15;6.50;85.70
17994;DHT22;9122;48.406;9.984;2022-12-07T11:00:00;6.60;85.10
17994;DHT22;9122;48.406;9.984;2022-12-07T11:12:27;6.80;84.50
17994;DHT22;9122;48.406;9.984;2022-12-07T11:37:06;6.80;83.20
17994;DHT22;9122;48.406;9.984;2022-12-07T11:40:05;6.90;83.30
17994;DHT22;9122;48.406;9.984;2022-12-07T11:42:55;6.80;83.30
17994;DHT22;9122;48.406;9.984;2022-12-07T11:45:42;6.80;83.20
17994;DHT22;9122;48.406;9.984;2022-12-07T11:48:47;6.80;82.70
17994;DHT22;9122;48.406;9.984;2022-12-07T11:51:35;6.80;82.60
17994;DHT22;9122;48.406;9.984;2022-12-07T11:54:28;6.80;82.20
17994;DHT22;9122;48.406;9.984;2022-12-07T11:57:24;6.80;82.20
17994;DHT22;9122;48.406;9.984;2022-12-07T12:00:15;6.80;82.20
17994;DHT22;9122;48.406;9.984;2022-12-07T12:03:07;6.80;82.30
17994;DHT22;9122;48.406;9.984;2022-12-07T12:05:56;6.90;82.30
17994;DHT22;9122;48.406;9.984;2022-12-07T12:08:50;6.90;82.10
17994;DHT22;9122;48.406;9.984;2022-12-07T12:12:16;6.90;82.10
17994;DHT22;9122;48.406;9.984;2022-12-07T12:21:17;6.90;82.20
17994;DHT22;9122;48.406;9.984;2022-12-07T12:24:11;6.90;81.90
17994;DHT22;9122;48.406;9.984;2022-12-07T12:27:03;6.90;81.40
17994;DHT22;9122;48.406;9.984;2022-12-07T12:29:54;6.90;81.50
17994;DHT22;9122;48.406;9.984;2022-12-07T12:32:41;6.90;81.30
17994;DHT22;9122;48.406;9.984;2022-12-07T12:35:37;6.90;81.00
17994;DHT22;9122;48.406;9.984;2022-12-07T12:38:31;6.90;81.10
17994;DHT22;9122;48.406;9.984;2022-12-07T12:47:39;6.90;81.10
17994;DHT22;9122;48.406;9.984;2022-12-07T12:50:34;6.90;81.10
17994;DHT22;9122;48.406;9.984;2022-12-07T12:53:24;6.90;81.50
17994;DHT22;9122;48.406;9.984;2022-12-07T12:56:25;6.90;81.50
17994;DHT22;9122;48.406;9.984;2022-12-07T12:59:41;6.90;81.50
17994;DHT22;9122;48.406;9.984;2022-12-07T13:02:53;6.90;81.70
17994;DHT22;9122;48.406;9.984;2022-12-07T13:05:38;6.80;81.80
17994;DHT22;9122;48.406;9.984;2022-12-07T13:08:24;6.80;81.70
17994;DHT22;9122;48.406;9.984;2022-12-07T13:11:31;6.80;81.70
17994;DHT22;9122;48.406;9.984;2022-12-07T13:26:35;6.80;81.60
17994;DHT22;9122;48.406;9.984;2022-12-07T13:29:21;6.80;81.50
17994;DHT22;9122;48.406;9.984;2022-12-07T13:32:26;7.30;81.50
17994;DHT22;9122;48.406;9.984;2022-12-07T13:35:34;6.80;81.20
17994;DHT22;9122;48.406;9.984;2022-12-07T13:38:25;6.80;81.20
17994;DHT22;9122;48.406;9.984;2022-12-07T13:41:14;6.90;80.70
17994;DHT22;9122;48.406;9.984;2022-12-07T13:44:19;6.80;80.50
17994;DHT22;9122;48.406;9.984;2022-12-07T13:47:17;6.80;80.60
17994;DHT22;9122;48.406;9.984;2022-12-07T13:50:23;6.80;80.60
17994;DHT22;9122;48.406;9.984;2022-12-07T13:53:12;6.80;80.00
17994;DHT22;9122;48.406;9.984;2022-12-07T13:56:00;6.80;80.00
17994;DHT22;9122;48.406;9.984;2022-12-07T13:58:45;6.80;79.80
17994;DHT22;9122;48.406;9.984;2022-12-07T14:01:33;6.80;79.60
17994;DHT22;9122;48.406;9.984;2022-12-07T14:04:18;6.90;79.50
17994;DHT22;9122;48.406;9.984;2022-12-07T14:07:26;6.80;79.50
17994;DHT22;9122;48.406;9.984;2022-12-07T14:13:34;6.80;79.70
17994;DHT22;9122;48.406;9.984;2022-12-07T14:22:26;6.80;80.20
17994;DHT22;9122;48.406;9.984;2022-12-07T14:25:21;6.70;80.10
17994;DHT22;9122;48.406;9.984;2022-12-07T14:28:25;6.80;80.40
17994;DHT22;9122;48.406;9.984;2022-12-07T14:31:13;6.70;80.60
17994;DHT22;9122;48.406;9.984;2022-12-07T14:34:01;6.70;81.10
17994;DHT22;9122;48.406;9.984;2022-12-07T14:36:45;6.70;81.00
17994;DHT22;9122;48.406;9.984;2022-12-07T14:39:29;6.70;81.10
17994;DHT22;9122;48.406;9.984;2022-12-07T14:42:14;6.70;81.20
17994;DHT22;9122;48.406;9.984;2022-12-07T14:44:59;6.70;81.30
17994;DHT22;9122;48.406;9.984;2022-12-07T14:47:44;7.60;81.80
17994;DHT22;9122;48.406;9.984;2022-12-07T14:50:29;6.70;81.30
17994;DHT22;9122;48.406;9.984;2022-12-07T14:53:16;7.20;81.50
17994;DHT22;9122;48.406;9.984;2022-12-07T14:56:01;6.70;81.00
17994;DHT22;9122;48.406;9.984;2022-12-07T14:58:45;6.70;81.00
17994;DHT22;9122;48.406;9.984;2022-12-07T15:01:32;6.70;81.20
17994;DHT22;9122;48.406;9.984;2022-12-07T15:04:16;6.70;81.50
17994;DHT22;9122;48.406;9.984;2022-12-07T15:07:03;6.60;81.60
17994;DHT22;9122;48.406;9.984;2022-12-07T15:09:48;6.70;82.00
17994;DHT22;9122;48.406;9.984;2022-12-07T15:12:33;6.60;82.10
17994;DHT22;9122;48.406;9.984;2022-12-07T15:15:18;6.60;82.40
17994;DHT22;9122;48.406;9.984;2022-12-07T15:18:02;6.70;82.70
17994;DHT22;9122;48.406;9.984;2022-12-07T15:20:47;6.70;82.70
17994;DHT22;9122;48.406;9.984;2022-12-07T15:23:32;6.60;82.70
17994;DHT22;9122;48.406;9.984;2022-12-07T15:26:17;6.60;82.90
17994;DHT22;9122;48.406;9.984;2022-12-07T15:29:01;6.60;83.00
17994;DHT22;9122;48.406;9.984;2022-12-07T15:31:48;6.60;83.00
17994;DHT22;9122;48.406;9.984;2022-12-07T15:34:33;6.60;83.10
17994;DHT22;9122;48.406;9.984;2022-12-07T15:37:17;6.60;83.30
17994;DHT22;9122;48.406;9.984;2022-12-07T15:40:02;6.60;83.30
17994;DHT22;9122;48.406;9.984;2022-12-07T15:42:46;6.50;84.10
17994;DHT22;9122;48.406;9.984;2022-12-07T15:45:31;6.50;83.60
17994;DHT22;9122;48.406;9.984;2022-12-07T15:48:15;6.50;83.70
17994;DHT22;9122;48.406;9.984;2022-12-07T15:51:05;6.50;83.80
17994;DHT22;9122;48.406;9.984;2022-12-07T15:53:50;6.50;84.00
17994;DHT22;9122;48.406;9.984;2022-12-07T15:56:34;6.50;84.20
17994;DHT22;9122;48.406;9.984;2022-12-07T15:59:19;6.40;85.10
17994;DHT22;9122;48.406;9.984;2022-12-07T16:02:04;6.40;84.60
17994;DHT22;9122;48.406;9.984;2022-12-07T16:04:49;6.40;85.00
17994;DHT22;9122;48.406;9.984;2022-12-07T16:07:34;6.40;85.30
17994;DHT22;9122;48.406;9.984;2022-12-07T16:10:19;6.40;85.70
17994;DHT22;9122;48.406;9.984;2022-12-07T16:13:04;6.30;86.00
17994;DHT22;9122;48.406;9.984;2022-12-07T16:15:49;6.30;86.30
17994;DHT22;9122;48.406;9.984;2022-12-07T16:18:34;6.30;86.60
17994;DHT22;9122;48.406;9.984;2022-12-07T16:21:19;6.30;86.90
17994;DHT22;9122;48.406;9.984;2022-12-07T16:24:04;6.30;87.20
17994;DHT22;9122;48.406;9.984;2022-12-07T16:26:49;6.30;87.50
17994;DHT22;9122;48.406;9.984;2022-12-07T16:29:34;6.20;87.70
17994;DHT22;9122;48.406;9.984;2022-12-07T16:32:18;6.20;88.00
17994;DHT22;9122;48.406;9.984;2022-12-07T16:35:03;6.20;88.30
17994;DHT22;9122;48.406;9.984;2022-12-07T16:37:48;6.20;88.60
17994;DHT22;9122;48.406;9.984;2022-12-07T16:40:32;6.20;88.80
17994;DHT22;9122;48.406;9.984;2022-12-07T16:43:17;6.20;89.00
17994;DHT22;9122;48.406;9.984;2022-12-07T16:46:02;6.20;89.20
17994;DHT22;9122;48.406;9.984;2022-12-07T16:48:46;6.20;89.30
17994;DHT22;9122;48.406;9.984;2022-12-07T16:51:31;6.20;89.50
17994;DHT22;9122;48.406;9.984;2022-12-07T16:54:15;6.20;89.60
17994;DHT22;9122;48.406;9.984;2022-12-07T16:57:00;6.20;89.70
17994;DHT22;9122;48.406;9.984;2022-12-07T16:59:45;6.10;89.80
17994;DHT22;9122;48.406;9.984;2022-12-07T17:02:29;6.20;90.00
17994;DHT22;9122;48.406;9.984;2022-12-07T17:05:14;6.10;90.40
17994;DHT22;9122;48.406;9.984;2022-12-07T17:07:59;6.10;90.10
17994;DHT22;9122;48.406;9.984;2022-12-07T17:10:44;6.10;90.20
17994;DHT22;9122;48.406;9.984;2022-12-07T17:13:29;6.30;90.30
17994;DHT22;9122;48.406;9.984;2022-12-07T17:16:33;6.10;90.30
17994;DHT22;9122;48.406;9.984;2022-12-07T17:19:20;6.10;90.30
17994;DHT22;9122;48.406;9.984;2022-12-07T17:22:07;6.10;90.40
17994;DHT22;9122;48.406;9.984;2022-12-07T17:24:55;6.10;90.50
17994;DHT22;9122;48.406;9.984;2022-12-07T17:27:39;6.10;90.60
17994;DHT22;9122;48.406;9.984;2022-12-07T17:30:24;6.00;90.50
17994;DHT22;9122;48.406;9.984;2022-12-07T17:33:08;6.10;90.60
17994;DHT22;9122;48.406;9.984;2022-12-07T17:35:53;6.00;90.60
17994;DHT22;9122;48.406;9.984;2022-12-07T17:38:37;6.00;90.70
17994;DHT22;9122;48.406;9.984;2022-12-07T17:41:25;6.00;90.80
17994;DHT22;9122;48.406;9.984;2022-12-07T17:44:28;6.00;90.80
17994;DHT22;9122;48.406;9.984;2022-12-07T17:47:13;6.00;90.90
17994;DHT22;9122;48.406;9.984;2022-12-07T17:49:59;6.00;90.90
17994;DHT22;9122;48.406;9.984;2022-12-07T17:52:44;6.00;91.00
17994;DHT22;9122;48.406;9.984;2022-12-07T17:55:53;6.00;91.00
17994;DHT22;9122;48.406;9.984;2022-12-07T17:58:37;5.90;91.20
17994;DHT22;9122;48.406;9.984;2022-12-07T18:01:22;6.00;91.20
17994;DHT22;9122;48.406;9.984;2022-12-07T18:04:07;6.00;91.20
17994;DHT22;9122;48.406;9.984;2022-12-07T18:06:51;6.00;91.30
17994;DHT22;9122;48.406;9.984;2022-12-07T18:09:37;5.90;91.30
17994;DHT22;9122;48.406;9.984;2022-12-07T18:12:21;5.90;91.40
17994;DHT22;9122;48.406;9.984;2022-12-07T18:15:07;5.90;91.50
17994;DHT22;9122;48.406;9.984;2022-12-07T18:17:54;5.90;91.70
17994;DHT22;9122;48.406;9.984;2022-12-07T18:20:40;5.90;91.70
17994;DHT22;9122;48.406;9.984;2022-12-07T18:23:26;6.40;91.80
17994;DHT22;9122;48.406;9.984;2022-12-07T18:26:15;5.90;92.40
17994;DHT22;9122;48.406;9.984;2022-12-07T18:31:45;5.90;91.50
17994;DHT22;9122;48.406;9.984;2022-12-07T18:34:32;5.90;92.10
17994;DHT22;9122;48.406;9.984;2022-12-07T18:37:17;5.90;92.10
17994;DHT22;9122;48.406;9.984;2022-12-07T18:40:41;5.90;92.00
17994;DHT22;9122;48.406;9.984;2022-12-07T18:43:33;6.20;92.10
17994;DHT22;9122;48.406;9.984;2022-12-07T18:46:21;5.80;92.10
17994;DHT22;9122;48.406;9.984;2022-12-07T18:49:13;5.80;92.10
17994;DHT22;9122;48.406;9.984;2022-12-07T18:51:58;5.80;92.10
17994;DHT22;9122;48.406;9.984;2022-12-07T18:54:42;5.80;92.20
17994;DHT22;9122;48.406;9.984;2022-12-07T18:57:28;5.80;92.20
17994;DHT22;9122;48.406;9.984;2022-12-07T19:00:26;5.80;92.30
17994;DHT22;9122;48.406;9.984;2022-12-07T19:03:24;5.80;92.20
17994;DHT22;9122;48.406;9.984;2022-12-07T19:06:10;5.80;92.30
17994;DHT22;9122;48.406;9.984;2022-12-07T19:08:55;5.80;92.30
17994;DHT22;9122;48.406;9.984;2022-12-07T19:11:41;5.80;92.30
17994;DHT22;9122;48.406;9.984;2022-12-07T19:14:36;5.80;92.30
17994;DHT22;9122;48.406;9.984;2022-12-07T19:17:30;5.80;92.40
17994;DHT22;9122;48.406;9.984;2022-12-07T19:20:15;5.80;92.40
17994;DHT22;9122;48.406;9.984;2022-12-07T19:22:59;5.80;92.60
17994;DHT22;9122;48.406;9.984;2022-12-07T19:25:44;5.80;92.50
17994;DHT22;9122;48.406;9.984;2022-12-07T19:28:28;5.70;92.50
17994;DHT22;9122;48.406;9.984;2022-12-07T19:31:13;5.70;92.50
17994;DHT22;9122;48.406;9.984;2022-12-07T19:33:57;5.70;92.60
17994;DHT22;9122;48.406;9.984;2022-12-07T19:36:42;5.80;92.60
17994;DHT22;9122;48.406;9.984;2022-12-07T19:39:27;5.80;92.60
17994;DHT22;9122;48.406;9.984;2022-12-07T19:42:13;5.70;92.60
17994;DHT22;9122;48.406;9.984;2022-12-07T19:45:00;5.70;92.60
17994;DHT22;9122;48.406;9.984;2022-12-07T19:47:45;5.70;93.30
17994;DHT22;9122;48.406;9.984;2022-12-07T19:50:33;5.70;92.80
17994;DHT22;9122;48.406;9.984;2022-12-07T19:53:22;5.70;92.60
17994;DHT22;9122;48.406;9.984;2022-12-07T19:56:16;5.70;93.10
17994;DHT22;9122;48.406;9.984;2022-12-07T19:59:01;5.70;92.60
17994;DHT22;9122;48.406;9.984;2022-12-07T20:01:46;5.70;92.60
17994;DHT22;9122;48.406;9.984;2022-12-07T20:04:32;5.70;92.70
17994;DHT22;9122;48.406;9.984;2022-12-07T20:07:26;5.60;92.70
17994;DHT22;9122;48.406;9.984;2022-12-07T20:10:10;5.70;92.70
17994;DHT22;9122;48.406;9.984;2022-12-07T20:12:55;5.60;92.70
17994;DHT22;9122;48.406;9.984;2022-12-07T20:16:02;5.60;92.80
17994;DHT22;9122;48.406;9.984;2022-12-07T20:18:47;5.60;92.80
17994;DHT22;9122;48.406;9.984;2022-12-07T20:21:31;5.60;92.80
17994;DHT22;9122;48.406;9.984;2022-12-07T20:24:21;5.60;92.80
17994;DHT22;9122;48.406;9.984;2022-12-07T20:27:06;5.60;93.00